createdAt,value
2022-07-25T00:04:30.777Z,28.3
2022-07-25T00:10:13.578Z,28.3
2022-07-25T00:15:51.234Z,28.3
2022-07-25T00:21:29.759Z,28.3
2022-07-25T00:27:11.930Z,28.3
2022-07-25T00:32:49.265Z,28.3
2022-07-25T00:38:25.738Z,28.3
2022-07-25T00:44:05.846Z,28.3
2022-07-25T00:49:33.991Z,28.3
2022-07-25T00:54:57.275Z,28.3
2022-07-25T01:00:35.040Z,28.3
2022-07-25T01:06:16.887Z,28.3
2022-07-25T01:11:54.196Z,28.2
2022-07-25T01:17:18.095Z,28.2
2022-07-25T01:22:39.890Z,28.2
2022-07-25T01:28:12.039Z,28.2
2022-07-25T01:33:56.563Z,28.2
2022-07-25T01:39:26.898Z,28.3
2022-07-25T01:45:04.617Z,28.3
2022-07-25T01:50:41.798Z,28.3
2022-07-25T01:56:31.771Z,28.3
2022-07-25T02:02:25.256Z,28.3
2022-07-25T02:08:01.802Z,28.3
2022-07-25T02:13:40.171Z,28.3
2022-07-25T02:19:20.529Z,28.3
2022-07-25T02:24:57.773Z,28.3
2022-07-25T02:30:34.282Z,28.4
2022-07-25T02:36:19.061Z,28.4
2022-07-25T02:41:56.115Z,28.5
2022-07-25T02:47:34.665Z,28.5
2022-07-25T02:53:11.540Z,28.6
2022-07-25T02:59:23.949Z,28.6
2022-07-25T03:04:48.974Z,28.6
2022-07-25T03:10:27.719Z,28.6
2022-07-25T03:16:05.049Z,28.6
2022-07-25T03:21:41.962Z,28.6
2022-07-25T03:27:33.829Z,28.6
2022-07-25T03:33:10.537Z,28.6
2022-07-25T03:38:46.233Z,28.6
2022-07-25T03:44:31.083Z,28.6
2022-07-25T03:55:13.752Z,85
2022-07-25T04:00:57.450Z,28.6
2022-07-25T04:06:37.068Z,28.6
2022-07-25T04:12:15.438Z,28.6
2022-07-25T04:18:03.400Z,28.6
2022-07-25T04:23:53.120Z,28.6
2022-07-25T04:29:30.125Z,28.6
2022-07-25T04:34:59.183Z,28.6
2022-07-25T04:40:40.992Z,28.6
2022-07-25T04:46:19.721Z,28.6
2022-07-25T04:51:47.031Z,28.6
2022-07-25T04:57:23.503Z,28.6
2022-07-25T05:02:32.921Z,28.6
2022-07-25T05:08:14.016Z,28.6
2022-07-25T05:13:55.260Z,28.6
2022-07-25T05:19:32.851Z,28.6
2022-07-25T05:25:03.564Z,28.6
2022-07-25T05:30:41.159Z,28.6
2022-07-25T05:36:04.367Z,28.6
2022-07-25T05:41:29.281Z,28.6
2022-07-25T05:47:06.568Z,28.5
2022-07-25T05:52:46.379Z,28.3
2022-07-25T05:58:29.237Z,32.8
2022-07-25T06:04:08.560Z,33.5
2022-07-25T06:09:49.292Z,34.1
2022-07-25T06:15:50.550Z,34.6
2022-07-25T06:21:29.612Z,35.2
2022-07-25T06:27:18.540Z,35.9
2022-07-25T06:33:10.451Z,36.6
2022-07-25T06:38:47.204Z,37.2
2022-07-25T06:44:29.518Z,37.9
2022-07-25T06:49:52.284Z,38.5
2022-07-25T06:55:31.916Z,39.1
2022-07-25T07:01:13.765Z,39.9
2022-07-25T07:06:58.139Z,40.5
2022-07-25T07:12:35.702Z,41.2
2022-07-25T07:18:18.765Z,41.9
2022-07-25T07:24:22.148Z,42.6
2022-07-25T07:30:11.471Z,43.3
2022-07-25T07:36:27.087Z,43.9
2022-07-25T07:42:13.447Z,44.6
2022-07-25T07:47:51.406Z,45.2
2022-07-25T07:53:01.939Z,45.8
2022-07-25T07:58:39.531Z,46.3
2022-07-25T15:20:07.339Z,56.6
2022-07-25T15:26:51.663Z,56.1
2022-07-25T15:32:32.992Z,55.6
2022-07-25T15:37:57.153Z,55.1
2022-07-25T15:43:37.539Z,54.6
2022-07-25T15:49:48.396Z,54.1
2022-07-25T15:55:31.254Z,53.6
2022-07-25T16:01:00.976Z,53.1
2022-07-25T16:06:41.047Z,52.7
2022-07-25T16:12:24.205Z,52.3
2022-07-25T16:18:05.245Z,49.9
2022-07-25T16:23:45.624Z,47.9
2022-07-25T16:29:30.800Z,46.7
2022-07-25T16:35:16.876Z,45.9
2022-07-25T16:41:00.522Z,45.2
2022-07-25T16:46:45.152Z,44.8
2022-07-25T16:52:30.869Z,44.2
2022-07-25T16:58:15.717Z,43.9
2022-07-25T17:03:57.108Z,43.6
2022-07-25T17:09:41.275Z,43.2
2022-07-25T17:15:20.864Z,42.9
2022-07-25T17:21:05.915Z,42.8
2022-07-25T17:26:45.484Z,42.5
2022-07-25T17:32:29.864Z,42.3
2022-07-25T17:38:10.287Z,42.1
2022-07-25T17:43:42.706Z,41.8
2022-07-25T17:49:23.224Z,41.7
2022-07-25T17:55:05.507Z,41.5
2022-07-25T18:00:47.006Z,41.4
2022-07-25T18:06:34.025Z,41.3
2022-07-25T18:12:13.134Z,41.1
2022-07-25T18:17:53.390Z,40.9
2022-07-25T18:23:33.904Z,40.9
2022-07-25T18:29:18.048Z,40.8
2022-07-25T18:35:02.146Z,40.6
2022-07-25T18:40:41.576Z,40.6
2022-07-25T18:47:00.707Z,40.4
2022-07-25T18:52:45.827Z,40.3
2022-07-25T18:58:26.944Z,40.2
2022-07-25T19:04:07.033Z,40.1
2022-07-25T19:09:47.747Z,39.2
2022-07-25T19:15:59.461Z,38.6
2022-07-25T19:21:39.946Z,38.1
2022-07-25T19:27:21.709Z,37.3
